createdAt,value
2023-01-04T00:00:35.629Z,100949.25
2023-01-04T00:01:20.326Z,100962.66
2023-01-04T00:02:02.024Z,100989.97
2023-01-04T00:02:43.755Z,100970.19
2023-01-04T00:03:25.737Z,100964.31
2023-01-04T00:04:07.535Z,100994.19
2023-01-04T00:04:49.161Z,100951.44
2023-01-04T00:05:30.745Z,100969.75
2023-01-04T00:06:15.245Z,100964.53
2023-01-04T00:06:56.996Z,100947.66
2023-01-04T00:07:38.647Z,100942.84
2023-01-04T00:08:20.314Z,100960.13
2023-01-04T00:09:01.908Z,100956.13
2023-01-04T00:09:43.568Z,100953.22
2023-01-04T00:10:25.219Z,100941.94
2023-01-04T00:11:11.933Z,100951.34
2023-01-04T00:11:53.618Z,100951.13
2023-01-04T00:12:36.652Z,100951.13
2023-01-04T00:13:18.335Z,100958.13
2023-01-04T00:14:00.128Z,100951.56
2023-01-04T00:14:41.729Z,100888.56
2023-01-04T00:15:23.351Z,100947.06
2023-01-04T00:16:11.879Z,100964.13
2023-01-04T00:16:53.628Z,100812.81
2023-01-04T00:17:35.269Z,100957.75
2023-01-04T00:18:16.897Z,100968.50
2023-01-04T00:18:58.782Z,100974.91
2023-01-04T00:19:40.476Z,100970.72
2023-01-04T00:20:22.152Z,100955.75
2023-01-04T00:21:12.179Z,100938.19
2023-01-04T00:21:53.796Z,100975.44
2023-01-04T00:22:36.270Z,100968.94
2023-01-04T00:23:17.852Z,100899.53
2023-01-04T00:24:01.424Z,100963.28
2023-01-04T00:24:43.124Z,100901.53
2023-01-04T00:25:25.215Z,100956.59
2023-01-04T00:26:12.394Z,100955.66
2023-01-04T00:26:54.483Z,100938.03
2023-01-04T00:27:36.994Z,100977.00
2023-01-04T00:28:18.644Z,100965.03
2023-01-04T00:29:03.112Z,100950.28
2023-01-04T00:29:44.796Z,100925.91
2023-01-04T00:30:26.429Z,100962.56
2023-01-04T00:31:10.405Z,100951.88
2023-01-04T00:31:52.217Z,100933.66
2023-01-04T00:32:33.935Z,100979.31
2023-01-04T00:33:15.589Z,100900.06
2023-01-04T00:34:02.541Z,100968.75
2023-01-04T00:34:44.229Z,100961.84
2023-01-04T00:35:44.749Z,100776.47
2023-01-04T00:36:28.250Z,100954.38
2023-01-04T00:37:09.861Z,100967.16
2023-01-04T00:37:52.257Z,100960.06
2023-01-04T00:38:34.780Z,100966.00
2023-01-04T00:39:16.777Z,100937.19
2023-01-04T00:39:58.467Z,100942.13
2023-01-04T00:40:40.164Z,100935.22
2023-01-04T00:41:56.931Z,100963.19
2023-01-04T00:42:25.930Z,100957.84
2023-01-04T00:43:08.555Z,100907.47
2023-01-04T00:43:50.149Z,100941.94
2023-01-04T00:44:34.503Z,100954.09
2023-01-04T00:45:16.226Z,100868.22
2023-01-04T00:45:58.302Z,100934.38
2023-01-04T00:46:41.080Z,100899.03
2023-01-04T00:47:22.897Z,100941.72
2023-01-04T00:48:04.659Z,100949.78
2023-01-04T00:48:48.887Z,100930.09
2023-01-04T00:49:31.341Z,100946.97
2023-01-04T00:50:12.972Z,100944.94
2023-01-04T00:50:55.068Z,100864.91
2023-01-04T00:51:39.114Z,100951.13
2023-01-04T00:52:20.720Z,100941.91
2023-01-04T00:53:02.338Z,100946.09
2023-01-04T00:53:43.936Z,100913.13
2023-01-04T00:54:26.085Z,100962.22
2023-01-04T00:55:08.049Z,100935.84
2023-01-04T00:55:49.741Z,100919.69
2023-01-04T00:56:31.886Z,100967.47
2023-01-04T00:57:13.520Z,100946.72
2023-01-04T00:57:55.164Z,100947.66
2023-01-04T00:58:36.745Z,100939.72
2023-01-04T00:59:20.059Z,100949.56
2023-01-04T01:00:01.699Z,100960.13
2023-01-04T01:00:43.332Z,100937.44
2023-01-04T01:01:26.318Z,100948.09
2023-01-04T01:02:08.265Z,100955.22
2023-01-04T01:02:50.179Z,100952.81
2023-01-04T01:03:38.064Z,100952.91
2023-01-04T01:04:23.032Z,100874.22
2023-01-04T01:05:05.155Z,100942.97
2023-01-04T01:05:46.774Z,100957.63
2023-01-04T01:06:30.345Z,100945.50
2023-01-04T01:07:11.973Z,100949.78
2023-01-04T01:07:53.850Z,100961.28
2023-01-04T01:08:36.075Z,100952.91
2023-01-04T01:09:18.404Z,100954.81
2023-01-04T01:10:00.458Z,100917.66
2023-01-04T01:10:42.065Z,100907.81
2023-01-04T01:11:23.743Z,100919.13
2023-01-04T01:12:05.377Z,100940.56
2023-01-04T01:12:47.088Z,100955.97
2023-01-04T01:13:28.713Z,100953.44
2023-01-04T01:14:17.194Z,100951.88
2023-01-04T01:15:00.800Z,100941.28
2023-01-04T01:15:42.701Z,100971.22
2023-01-04T01:16:53.793Z,100953.66
2023-01-04T01:17:27.172Z,100944.75
2023-01-04T01:18:08.814Z,100925.19
2023-01-04T01:18:51.108Z,100966.44
2023-01-04T01:19:32.887Z,100950.53
2023-01-04T01:20:14.499Z,100939.31
2023-01-04T01:20:56.243Z,100949.16
2023-01-04T01:21:38.204Z,100965.19
2023-01-04T01:22:19.820Z,100922.25
2023-01-04T01:23:01.434Z,100959.22
2023-01-04T01:23:43.833Z,100968.31
2023-01-04T01:24:26.526Z,100956.81
2023-01-04T01:25:08.295Z,100950.00
2023-01-04T01:25:49.922Z,100960.16
2023-01-04T01:26:31.630Z,100895.75
2023-01-04T01:27:13.251Z,100955.75
2023-01-04T01:27:54.871Z,100951.66
2023-01-04T01:28:36.631Z,100950.72
2023-01-04T01:29:18.296Z,100935.13
2023-01-04T01:29:59.918Z,100929.06
2023-01-04T01:30:42.713Z,100946.88
2023-01-04T01:31:26.921Z,100913.97
2023-01-04T01:32:08.558Z,100969.34
2023-01-04T01:32:50.255Z,100890.22
2023-01-04T01:33:31.882Z,100955.75
2023-01-04T01:34:13.493Z,100954.81
2023-01-04T01:34:55.092Z,100920.16
2023-01-04T01:35:36.929Z,100958.03
2023-01-04T01:36:20.967Z,100952.06
2023-01-04T01:37:02.787Z,100959.81
2023-01-04T01:37:44.416Z,100911.56
2023-01-04T01:38:26.042Z,100955.75
2023-01-04T01:39:07.851Z,100919.63
2023-01-04T01:39:49.482Z,100950.00
2023-01-04T01:40:31.226Z,100940.91
2023-01-04T01:41:18.369Z,100912.22
2023-01-04T01:41:59.995Z,100938.47
2023-01-04T01:42:41.642Z,100919.53
2023-01-04T01:43:51.253Z,100947.16
2023-01-04T01:44:41.981Z,100942.66
2023-01-04T01:45:34.322Z,100953.88
2023-01-04T01:46:22.493Z,100859.25
2023-01-04T01:47:04.087Z,100945.78
2023-01-04T01:47:47.417Z,100923.63
2023-01-04T01:48:29.682Z,100954.38
2023-01-04T01:49:17.857Z,100925.09
2023-01-04T01:50:00.982Z,100870.34
2023-01-04T01:50:53.665Z,100935.22
2023-01-04T01:51:35.639Z,100938.28
2023-01-04T01:52:28.792Z,100949.16
2023-01-04T01:53:11.997Z,100956.06
2023-01-04T01:54:01.633Z,100910.22
2023-01-04T01:54:47.495Z,100922.25
2023-01-04T01:55:31.953Z,100936.69
2023-01-04T01:56:17.574Z,100923.31
2023-01-04T01:57:01.811Z,100940.25
2023-01-04T01:57:45.565Z,100899.03
2023-01-04T01:58:34.569Z,100914.81
2023-01-04T01:59:17.510Z,100939.00
2023-01-04T02:00:04.216Z,100921.50
2023-01-04T02:00:54.524Z,100928.41
2023-01-04T02:01:36.460Z,100928.31
2023-01-04T02:02:18.456Z,100936.69
2023-01-04T02:03:16.046Z,100930.00
2023-01-04T02:03:57.855Z,100898.47
2023-01-04T02:04:44.558Z,100834.63
2023-01-04T02:05:27.255Z,100914.25
2023-01-04T02:06:12.975Z,100931.34
2023-01-04T02:06:56.674Z,100887.34
2023-01-04T02:07:38.514Z,100894.50
2023-01-04T02:08:22.770Z,100860.69
2023-01-04T02:09:04.630Z,100853.88
2023-01-04T02:09:46.961Z,100902.88
2023-01-04T02:10:28.778Z,100904.16
2023-01-04T02:11:10.390Z,100934.91
2023-01-04T02:11:51.988Z,100909.97
2023-01-04T02:12:33.790Z,100915.75
2023-01-04T02:13:20.052Z,100901.00
2023-01-04T02:14:23.162Z,100905.09
2023-01-04T02:15:05.250Z,100929.47
2023-01-04T02:16:20.399Z,100918.78
2023-01-04T02:17:34.910Z,100850.50
2023-01-04T02:18:26.753Z,100934.78
2023-01-04T02:19:45.685Z,100927.69
2023-01-04T02:20:37.602Z,100929.47
2023-01-04T02:21:32.224Z,100920.22
2023-01-04T02:22:47.748Z,100933.13
2023-01-04T02:23:53.358Z,100934.72
2023-01-04T02:24:49.947Z,100927.69
2023-01-04T02:25:56.122Z,100926.63
2023-01-04T02:26:56.111Z,100917.34
2023-01-04T02:27:48.261Z,100909.06
2023-01-04T02:28:41.888Z,100915.13
2023-01-04T02:29:32.617Z,100906.97
2023-01-04T02:30:35.885Z,100906.88
2023-01-04T02:31:39.687Z,100896.91
2023-01-04T02:32:40.040Z,100910.31
2023-01-04T02:33:36.300Z,100861.13
2023-01-04T02:34:18.309Z,100902.97
2023-01-04T02:35:15.144Z,100900.69
2023-01-04T02:36:05.867Z,100893.16
2023-01-04T02:36:56.781Z,100895.03
2023-01-04T02:37:53.317Z,100890.63
2023-01-04T02:38:55.573Z,100899.31
2023-01-04T02:40:09.312Z,100846.91
2023-01-04T02:40:57.037Z,100892.50
2023-01-04T02:41:43.659Z,100892.63
2023-01-04T02:42:51.275Z,100887.50
2023-01-04T02:44:02.764Z,100902.97
2023-01-04T02:44:58.544Z,100904.63
2023-01-04T02:45:48.557Z,100902.03
2023-01-04T02:46:35.499Z,100896.28
2023-01-04T02:47:50.213Z,100886.97
2023-01-04T02:49:00.004Z,100886.25
2023-01-04T02:50:04.551Z,100864.06
2023-01-04T02:50:58.157Z,100877.56
2023-01-04T02:51:39.948Z,100872.00
2023-01-04T02:52:23.340Z,100814.34
2023-01-04T02:53:12.035Z,100873.78
2023-01-04T02:53:54.185Z,100853.06
2023-01-04T02:54:37.178Z,100884.25
2023-01-04T02:55:18.998Z,100872.13
2023-01-04T02:56:06.602Z,100876.91
2023-01-04T02:57:05.271Z,100880.38
2023-01-04T02:58:01.926Z,100866.78
2023-01-04T02:59:01.768Z,100882.88
2023-01-04T03:00:06.889Z,100868.22
2023-01-04T03:01:07.174Z,100879.34
2023-01-04T03:02:28.323Z,100868.88
2023-01-04T03:03:41.050Z,100871.94
2023-01-04T03:05:19.418Z,100863.97
2023-01-04T03:06:16.434Z,100863.84
2023-01-04T03:07:24.364Z,100861.97
2023-01-04T03:08:17.364Z,100860.19
2023-01-04T03:09:28.381Z,100867.19
2023-01-04T03:10:36.811Z,100845.03
2023-01-04T03:11:37.525Z,100839.38
2023-01-04T03:12:32.078Z,100863.75
2023-01-04T03:13:26.864Z,100854.56
2023-01-04T03:14:31.552Z,100850.34
2023-01-04T03:15:36.932Z,100865.22
2023-01-04T03:16:23.699Z,100862.69
2023-01-04T03:17:10.362Z,100857.66
2023-01-04T03:18:13.600Z,100865.00
2023-01-04T03:18:58.411Z,100874.53
2023-01-04T03:19:51.701Z,100870.25
2023-01-04T03:20:33.414Z,100862.59
2023-01-04T03:21:17.535Z,100848.47
2023-01-04T03:21:59.379Z,100813.63
2023-01-04T03:23:04.564Z,100883.63
2023-01-04T03:24:08.409Z,100869.50
2023-01-04T03:25:08.752Z,100879.09
2023-01-04T03:26:16.176Z,100871.78
2023-01-04T03:27:24.164Z,100861.38
2023-01-04T03:28:26.167Z,100859.91
2023-01-04T03:29:33.739Z,100887.84
2023-01-04T03:30:37.273Z,100867.56
2023-01-04T03:31:42.711Z,100872.06
2023-01-04T03:32:59.045Z,100872.72
2023-01-04T03:33:59.904Z,100879.28
2023-01-04T03:35:00.211Z,100837.25
2023-01-04T03:35:46.921Z,100871.78
2023-01-04T03:36:51.560Z,100853.88
2023-01-04T03:38:18.023Z,100857.78
2023-01-04T03:39:31.824Z,100790.06
2023-01-04T03:40:53.613Z,100835.03
2023-01-04T03:42:07.142Z,100838.41
2023-01-04T03:43:40.936Z,100857.88
2023-01-04T03:45:10.282Z,100812.56
2023-01-04T03:46:16.317Z,100863.22
2023-01-04T03:47:27.168Z,100803.56
2023-01-04T03:48:39.507Z,100856.22
2023-01-04T03:49:29.941Z,100857.44
2023-01-04T03:50:18.173Z,100863.31
2023-01-04T03:51:28.105Z,100853.06
2023-01-04T03:52:12.608Z,100854.66
2023-01-04T03:52:56.783Z,100827.56
2023-01-04T03:53:47.858Z,100856.22
2023-01-04T03:54:38.533Z,100857.16
2023-01-04T03:55:21.328Z,100862.38
2023-01-04T03:56:08.573Z,100856.22
2023-01-04T03:56:51.260Z,100852.53
2023-01-04T03:57:34.320Z,100833.09
2023-01-04T03:58:18.048Z,100855.06
2023-01-04T03:59:00.357Z,100781.81
2023-01-04T03:59:49.789Z,100859.16
2023-01-04T04:00:32.966Z,100836.44
2023-01-04T04:01:14.903Z,100854.66
2023-01-04T04:01:57.075Z,100840.00
2023-01-04T04:02:39.977Z,100842.50
2023-01-04T04:03:21.599Z,100850.47
2023-01-04T04:04:22.255Z,100845.66
2023-01-04T04:05:22.986Z,100831.50
2023-01-04T04:06:23.496Z,100844.19
2023-01-04T04:07:24.252Z,100831.50
2023-01-04T04:08:24.575Z,100840.81
2023-01-04T04:09:06.188Z,100834.34
2023-01-04T04:09:47.788Z,100828.47
2023-01-04T04:10:29.398Z,100839.25
2023-01-04T04:11:29.391Z,100828.66
2023-01-04T04:12:10.988Z,100819.03
2023-01-04T04:12:52.527Z,100825.75
2023-01-04T04:13:34.141Z,100812.97
2023-01-04T04:14:15.850Z,100827.19
2023-01-04T04:14:57.497Z,100814.53
2023-01-04T04:15:39.924Z,100809.81
2023-01-04T04:16:21.989Z,100824.78
2023-01-04T04:17:04.086Z,100833.22
2023-01-04T04:17:45.739Z,100824.63
2023-01-04T04:18:27.320Z,100821.81
2023-01-04T04:19:09.308Z,100826.31
2023-01-04T04:19:51.027Z,100820.25
2023-01-04T04:20:32.998Z,100836.69
2023-01-04T04:21:14.893Z,100801.00
2023-01-04T04:21:56.531Z,100819.09
2023-01-04T04:22:38.182Z,100818.56
2023-01-04T04:23:19.792Z,100793.06
2023-01-04T04:24:01.408Z,100822.75
2023-01-04T04:24:43.096Z,100791.09
2023-01-04T04:25:24.693Z,100759.44
2023-01-04T04:26:06.680Z,100825.72
2023-01-04T04:26:48.658Z,100817.25
2023-01-04T04:27:30.417Z,100813.56
2023-01-04T04:28:12.082Z,100818.91
2023-01-04T04:28:53.695Z,100811.69
2023-01-04T04:29:35.324Z,100783.34
2023-01-04T04:30:17.193Z,100798.19
2023-01-04T04:30:58.804Z,100798.50
2023-01-04T04:31:40.454Z,100814.78
2023-01-04T04:32:22.661Z,100811.44
2023-01-04T04:33:04.288Z,100813.53
2023-01-04T04:33:45.930Z,100809.72
2023-01-04T04:34:27.605Z,100796.75
2023-01-04T04:35:09.585Z,100804.91
2023-01-04T04:35:55.309Z,100786.91
2023-01-04T04:36:37.083Z,100798.63
2023-01-04T04:37:18.688Z,100811.38
2023-01-04T04:38:00.347Z,100776.44
2023-01-04T04:38:41.971Z,100789.53
2023-01-04T04:39:23.564Z,100780.56
2023-01-04T04:40:06.510Z,100811.19
2023-01-04T04:41:06.870Z,100776.00
2023-01-04T04:41:48.464Z,100772.53
2023-01-04T04:42:30.124Z,100800.94
2023-01-04T04:43:11.780Z,100807.63
2023-01-04T04:43:54.251Z,100796.84
2023-01-04T04:44:36.038Z,100796.13
2023-01-04T04:45:17.598Z,100718.97
2023-01-04T04:46:00.469Z,100796.84
2023-01-04T04:46:43.197Z,100805.91
2023-01-04T04:47:24.840Z,100801.63
2023-01-04T04:48:06.465Z,100810.09
2023-01-04T04:48:48.205Z,100796.66
2023-01-04T04:49:30.145Z,100806.91
2023-01-04T04:50:11.781Z,100788.47
2023-01-04T04:50:53.596Z,100800.16
2023-01-04T04:51:35.641Z,100783.81
2023-01-04T04:52:17.307Z,100774.66
2023-01-04T04:52:59.079Z,100762.13
2023-01-04T04:53:43.635Z,100785.00
2023-01-04T04:54:25.265Z,100791.59
2023-01-04T04:55:07.780Z,100779.44
2023-01-04T04:55:53.512Z,100798.78
2023-01-04T04:56:36.993Z,100796.66
2023-01-04T04:57:18.652Z,100789.47
2023-01-04T04:58:00.253Z,100794.84
2023-01-04T04:58:42.080Z,100787.56
2023-01-04T04:59:23.878Z,100786.75
2023-01-04T05:00:06.254Z,100784.84
2023-01-04T05:00:47.947Z,100779.72
2023-01-04T05:01:30.737Z,100768.13
2023-01-04T05:02:12.565Z,100771.59
2023-01-04T05:02:54.363Z,100788.19
2023-01-04T05:03:36.103Z,100783.06
2023-01-04T05:04:19.376Z,100768.88
2023-01-04T05:05:01.061Z,100756.19
2023-01-04T05:05:43.008Z,100792.03
2023-01-04T05:06:24.674Z,100780.81
2023-01-04T05:07:12.105Z,100796.09
2023-01-04T05:07:54.603Z,100776.97
2023-01-04T05:08:36.282Z,100787.97
2023-01-04T05:09:17.956Z,100790.34
2023-01-04T05:09:59.590Z,100782.47
2023-01-04T05:10:41.597Z,100771.41
2023-01-04T05:11:41.979Z,100781.66
2023-01-04T05:12:42.055Z,100779.03
2023-01-04T05:13:23.782Z,100759.44
2023-01-04T05:14:05.486Z,100764.56
2023-01-04T05:14:47.069Z,100763.63
2023-01-04T05:15:40.488Z,100775.81
2023-01-04T05:16:22.119Z,100748.66
2023-01-04T05:17:03.903Z,100720.53
2023-01-04T05:17:45.556Z,100759.34
2023-01-04T05:18:27.155Z,100728.28
2023-01-04T05:19:09.034Z,100780.94
2023-01-04T05:19:50.616Z,100721.00
2023-01-04T05:20:32.504Z,100659.00
2023-01-04T05:21:18.428Z,100700.28
2023-01-04T05:22:01.827Z,100765.56
2023-01-04T05:22:43.617Z,100780.25
2023-01-04T05:23:25.413Z,100766.78
2023-01-04T05:24:08.047Z,100784.69
2023-01-04T05:24:49.658Z,100762.63
2023-01-04T05:25:31.476Z,100754.78
2023-01-04T05:26:13.091Z,100690.56
2023-01-04T05:26:54.692Z,100780.53
2023-01-04T05:27:36.602Z,100769.22
2023-01-04T05:28:18.170Z,100719.13
2023-01-04T05:28:59.801Z,100761.84
2023-01-04T05:30:00.045Z,100761.44
2023-01-04T05:30:50.546Z,100754.81
2023-01-04T05:31:32.284Z,100778.03
2023-01-04T05:32:13.958Z,100769.72
2023-01-04T05:32:55.953Z,100755.88
2023-01-04T05:33:37.582Z,100772.97
2023-01-04T05:34:22.325Z,100720.00
2023-01-04T05:35:04.439Z,100763.78
2023-01-04T05:35:46.490Z,100740.50
2023-01-04T05:36:28.103Z,100743.13
2023-01-04T05:37:09.727Z,100764.38
2023-01-04T05:37:51.354Z,100768.69
2023-01-04T05:38:34.870Z,100700.44
2023-01-04T05:39:16.525Z,100687.69
2023-01-04T05:39:58.146Z,100760.09
2023-01-04T05:40:40.054Z,100673.53
2023-01-04T05:41:40.487Z,100765.81
2023-01-04T05:42:25.139Z,100766.53
2023-01-04T05:43:06.878Z,100745.53
2023-01-04T05:43:48.527Z,100745.06
2023-01-04T05:44:30.130Z,100695.91
2023-01-04T05:45:11.772Z,100765.94
2023-01-04T05:45:56.250Z,100745.41
2023-01-04T05:46:38.030Z,100764.13
2023-01-04T05:47:20.202Z,100763.53
2023-01-04T05:48:02.188Z,100762.09
2023-01-04T05:48:43.760Z,100768.50
2023-01-04T05:49:25.409Z,100751.47
2023-01-04T05:50:08.089Z,100756.59
2023-01-04T05:50:50.089Z,100750.50
2023-01-04T05:51:31.674Z,100710.31
2023-01-04T05:52:13.282Z,100750.16
2023-01-04T05:52:54.884Z,100750.03
2023-01-04T05:53:36.591Z,100704.13
2023-01-04T05:54:21.499Z,100738.81
2023-01-04T05:55:03.944Z,100738.25
2023-01-04T05:55:48.064Z,100768.41
2023-01-04T05:56:29.683Z,100750.69
2023-01-04T05:57:11.802Z,100763.44
2023-01-04T05:57:53.467Z,100770.38
2023-01-04T05:58:35.109Z,100748.06
2023-01-04T05:59:16.808Z,100692.38
2023-01-04T05:59:58.467Z,100749.72
2023-01-04T06:00:40.151Z,100758.09
2023-01-04T06:01:21.816Z,100754.53
2023-01-04T06:02:04.679Z,100752.63
2023-01-04T06:02:46.454Z,100755.09
2023-01-04T06:03:28.227Z,100734.09
2023-01-04T06:04:10.003Z,100762.00
2023-01-04T06:04:58.464Z,100733.66
2023-01-04T06:05:41.138Z,100749.63
2023-01-04T06:06:22.697Z,100734.00
2023-01-04T06:07:04.275Z,100744.13
2023-01-04T06:07:45.889Z,100756.66
2023-01-04T06:08:27.537Z,100746.03
2023-01-04T06:09:09.201Z,100748.78
2023-01-04T06:09:50.893Z,100752.00
2023-01-04T06:10:32.477Z,100700.72
2023-01-04T06:11:14.115Z,100751.06
2023-01-04T06:11:58.528Z,100735.53
2023-01-04T06:12:40.703Z,100746.28
2023-01-04T06:13:22.359Z,100754.16
2023-01-04T06:14:04.145Z,100716.22
2023-01-04T06:14:45.830Z,100756.53
2023-01-04T06:15:27.399Z,100746.75
2023-01-04T06:16:09.060Z,100739.59
2023-01-04T06:16:50.649Z,100705.84
2023-01-04T06:17:32.739Z,100715.28
2023-01-04T06:18:14.324Z,100731.72
2023-01-04T06:18:56.048Z,100745.19
2023-01-04T06:19:37.700Z,100740.31
2023-01-04T06:20:19.433Z,100731.13
2023-01-04T06:21:01.021Z,100739.72
2023-01-04T06:21:42.726Z,100649.69
2023-01-04T06:22:28.070Z,100730.53
2023-01-04T06:23:09.687Z,100724.22
2023-01-04T06:23:52.149Z,100746.53
2023-01-04T06:24:34.148Z,100732.81
2023-01-04T06:25:16.007Z,100741.25
2023-01-04T06:25:57.682Z,100718.00
2023-01-04T06:26:39.306Z,100739.84
2023-01-04T06:27:21.102Z,100748.66
2023-01-04T06:28:02.781Z,100745.91
2023-01-04T06:28:44.400Z,100746.75
2023-01-04T06:29:26.138Z,100728.28
2023-01-04T06:30:08.486Z,100718.59
2023-01-04T06:30:50.189Z,100723.63
2023-01-04T06:31:33.480Z,100711.22
2023-01-04T06:32:15.168Z,100721.00
2023-01-04T06:32:56.804Z,100732.09
2023-01-04T06:33:39.297Z,100719.22
2023-01-04T06:34:24.059Z,100730.91
2023-01-04T06:35:10.332Z,100720.03
2023-01-04T06:35:55.778Z,100719.81
2023-01-04T06:36:37.462Z,100691.91
2023-01-04T06:37:19.230Z,100698.72
2023-01-04T06:38:00.924Z,100709.28
2023-01-04T06:38:42.527Z,100723.25
2023-01-04T06:39:24.138Z,100722.91
2023-01-04T06:40:06.515Z,100695.84
2023-01-04T06:40:48.142Z,100733.75
2023-01-04T06:41:29.758Z,100720.41
2023-01-04T06:42:31.333Z,100703.94
2023-01-04T06:43:12.968Z,100703.72
2023-01-04T06:43:54.656Z,100716.56
2023-01-04T06:44:36.269Z,100724.19
2023-01-04T06:45:17.872Z,100700.00
2023-01-04T06:46:01.346Z,100709.66
2023-01-04T06:46:43.093Z,100728.84
2023-01-04T06:47:24.897Z,100720.47
2023-01-04T06:48:09.227Z,100738.28
2023-01-04T06:48:52.444Z,100642.06
2023-01-04T06:49:34.040Z,100715.22
2023-01-04T06:50:15.754Z,100694.50
2023-01-04T06:50:57.642Z,100720.59
2023-01-04T06:51:39.257Z,100738.41
2023-01-04T06:52:20.883Z,100730.88
2023-01-04T06:53:02.765Z,100710.03
2023-01-04T06:53:44.475Z,100728.03
2023-01-04T06:54:26.304Z,100704.78
2023-01-04T06:55:09.492Z,100699.19
2023-01-04T06:55:51.330Z,100723.97
2023-01-04T06:56:33.535Z,100724.91
2023-01-04T06:57:15.193Z,100727.44
2023-01-04T06:57:59.748Z,100716.22
2023-01-04T06:58:41.478Z,100709.16
2023-01-04T06:59:23.082Z,100722.66
2023-01-04T07:00:09.133Z,100587.78
2023-01-04T07:00:52.072Z,100703.56
2023-01-04T07:01:33.712Z,100714.53
2023-01-04T07:02:16.247Z,100673.78
2023-01-04T07:03:14.688Z,100699.38
2023-01-04T07:03:57.312Z,100709.66
2023-01-04T07:04:38.974Z,100715.13
2023-01-04T07:05:20.615Z,100683.78
2023-01-04T07:06:06.940Z,100705.94
2023-01-04T07:06:48.626Z,100666.47
2023-01-04T07:07:30.607Z,100677.56
2023-01-04T07:08:13.594Z,100684.22
2023-01-04T07:08:56.053Z,100674.69
2023-01-04T07:09:38.504Z,100703.63
2023-01-04T07:10:20.250Z,100651.22
2023-01-04T07:11:02.110Z,100704.72
2023-01-04T07:11:43.712Z,100676.63
2023-01-04T07:12:25.334Z,100714.50
2023-01-04T07:13:08.266Z,100684.63
2023-01-04T07:13:49.964Z,100713.94
2023-01-04T07:14:31.614Z,100679.72
2023-01-04T07:15:37.064Z,100689.53
2023-01-04T07:16:15.057Z,100701.53
2023-01-04T07:16:56.723Z,100666.28
2023-01-04T07:17:38.289Z,100667.09
2023-01-04T07:18:20.002Z,100705.34
2023-01-04T07:19:01.628Z,100704.84
2023-01-04T07:19:43.470Z,100714.63
2023-01-04T07:20:25.540Z,100703.03
2023-01-04T07:21:07.217Z,100676.25
2023-01-04T07:21:48.770Z,100702.44
2023-01-04T07:22:30.560Z,100646.53
2023-01-04T07:23:12.149Z,100683.22
2023-01-04T07:23:53.731Z,100685.72
2023-01-04T07:24:35.338Z,100661.75
2023-01-04T07:25:17.130Z,100701.75
2023-01-04T07:26:02.862Z,100606.81
2023-01-04T07:26:44.445Z,100671.00
2023-01-04T07:27:26.094Z,100649.09
2023-01-04T07:28:09.144Z,100654.78
2023-01-04T07:29:09.288Z,100654.78
2023-01-04T07:29:50.882Z,100675.19
2023-01-04T07:30:32.592Z,100635.50
2023-01-04T07:31:14.336Z,100658.84
2023-01-04T07:31:56.259Z,100645.38
2023-01-04T07:32:37.808Z,100694.78
2023-01-04T07:33:19.473Z,100655.75
2023-01-04T07:34:01.138Z,100649.81
2023-01-04T07:34:43.791Z,100654.69
2023-01-04T07:35:25.497Z,100630.06
2023-01-04T07:36:07.680Z,100668.31
2023-01-04T07:36:50.396Z,100667.59
2023-01-04T07:37:32.010Z,100618.91
2023-01-04T07:38:13.678Z,100636.63
2023-01-04T07:38:55.323Z,100651.91
2023-01-04T07:39:36.941Z,100668.09
2023-01-04T07:40:19.053Z,100694.59
2023-01-04T07:41:01.040Z,100644.31
2023-01-04T07:41:42.807Z,100661.22
2023-01-04T07:42:25.220Z,100671.09
2023-01-04T07:43:06.967Z,100700.75
2023-01-04T07:43:48.592Z,100544.34
2023-01-04T07:44:30.578Z,100638.41
2023-01-04T07:45:12.342Z,100684.72
2023-01-04T07:45:54.044Z,100687.09
2023-01-04T07:46:36.563Z,100665.28
2023-01-04T07:47:18.287Z,100690.41
2023-01-04T07:48:00.039Z,100598.22
2023-01-04T07:48:41.659Z,100660.88
2023-01-04T07:49:23.489Z,100638.81
2023-01-04T07:50:06.066Z,100674.41
2023-01-04T07:50:47.788Z,100689.09
2023-01-04T07:51:30.680Z,100619.16
2023-01-04T07:52:12.344Z,100664.63
2023-01-04T07:52:53.961Z,100633.41
2023-01-04T07:53:35.576Z,100632.31
2023-01-04T07:54:18.176Z,100615.03
2023-01-04T07:54:59.883Z,100645.16
2023-01-04T07:55:44.322Z,100664.63
2023-01-04T07:56:25.976Z,100586.19
2023-01-04T07:57:07.600Z,100649.94
2023-01-04T07:57:49.186Z,100573.66
2023-01-04T07:58:33.463Z,100622.78
2023-01-04T07:59:16.259Z,100663.13
2023-01-04T07:59:57.903Z,100611.91
2023-01-04T08:00:39.618Z,100653.09
2023-01-04T08:01:21.292Z,100664.38
2023-01-04T08:02:03.392Z,100644.25
2023-01-04T08:02:45.312Z,100669.09
2023-01-04T08:03:27.063Z,100620.03
2023-01-04T08:04:11.698Z,100577.06
2023-01-04T08:04:53.380Z,100674.34
2023-01-04T08:05:35.232Z,100654.28
2023-01-04T08:06:17.436Z,100627.09
2023-01-04T08:06:59.111Z,100664.78
2023-01-04T08:07:40.780Z,100634.19
2023-01-04T08:08:22.428Z,100646.94
2023-01-04T08:09:05.695Z,100652.47
2023-01-04T08:09:47.296Z,100636.25
2023-01-04T08:10:29.010Z,100624.56
2023-01-04T08:11:14.535Z,100623.97
2023-01-04T08:11:56.172Z,100615.63
2023-01-04T08:12:37.850Z,100657.53
2023-01-04T08:13:19.465Z,100629.53
2023-01-04T08:14:01.420Z,100631.84
2023-01-04T08:14:43.022Z,100639.53
2023-01-04T08:15:24.626Z,100634.19
2023-01-04T08:16:06.862Z,100647.72
2023-01-04T08:16:48.504Z,100609.78
2023-01-04T08:17:30.118Z,100644.06
2023-01-04T08:18:11.782Z,100618.13
2023-01-04T08:18:57.884Z,100622.34
2023-01-04T08:19:39.562Z,100605.69
2023-01-04T08:20:21.156Z,100611.13
2023-01-04T08:21:08.134Z,100580.44
2023-01-04T08:21:49.841Z,100627.28
2023-01-04T08:22:31.480Z,100617.28
2023-01-04T08:23:13.178Z,100627.09
2023-01-04T08:23:55.324Z,100638.69
2023-01-04T08:24:36.923Z,100520.88
2023-01-04T08:25:18.568Z,100632.41
2023-01-04T08:26:07.935Z,100641.31
2023-01-04T08:26:49.901Z,100622.03
2023-01-04T08:27:32.107Z,100616.06
2023-01-04T08:28:13.760Z,100611.66
2023-01-04T08:28:56.524Z,100628.50
2023-01-04T08:29:38.674Z,100616.25
2023-01-04T08:30:20.359Z,100643.47
2023-01-04T08:31:13.425Z,100607.47
2023-01-04T08:31:55.173Z,100614.72
2023-01-04T08:32:38.973Z,100574.91
2023-01-04T08:33:20.589Z,100629.28
2023-01-04T08:34:05.053Z,100603.75
2023-01-04T08:34:46.664Z,100580.81
2023-01-04T08:35:28.372Z,100572.91
2023-01-04T08:36:26.669Z,100616.72
2023-01-04T08:37:09.397Z,100627.91
2023-01-04T08:37:51.050Z,100620.97
2023-01-04T08:38:59.192Z,100554.09
2023-01-04T08:39:36.109Z,100573.50
2023-01-04T08:40:17.947Z,100616.75
2023-01-04T08:41:07.272Z,100619.56
2023-01-04T08:42:14.433Z,100584.81